Capitol Logistics 308


KPVD
Theodore Francis Green State Airport
Providence, Rhode Island, US
KRFD
Chicago/Rockford International Airport
Rockford, Illinois, US

Route Details

Aircraft Information
Primary: Boeing 767-300BDSF
Backup: Not Available
Route Data
Distance: 790nm
Sched. Duration: 1h 39m
Avg. Duration: 2h 27m (+88m)
Times Flown: 11
Recm'd Route: BAF HNK NUGNT DJB J60 JOT V171 RFD
Planned Altitude: 38,000ft
Origin Wx: KPVD 080551Z 04005KT 10SM CLR 20/17 A3015 RMK AO2 SLP208 T02000172 10239 20194 58001
Dest. Wx: KRFD 080554Z 17009KT 10SM SCT250 20/15 A3013 RMK AO2 SLP196 T02000150 10256 20194 402890144 55003
Notes:

Financial History
Total Freight: 595,773lbs
Average Load: 54,161lbs/flt
Fuel Used: 202,917lbs
Avg. Fuel Used: 18,447lbs/flt
Fuel Expense: $192,771
Avg. Fuel Expense: $17,525
Avg. Fuel Cost: $0.95/lbs
Total Gross Income: $787,557
Pilot Pay: $1,799
Total Expenses: $85,628
Total Revenue: $503,124
Average Revenue: $71,596.05